Time;durP1;ratioP1;P1;durP2;ratioP2;P2;SDS_P1;SDS_P2;PMS_P1;PMS_P2;Temp;Humidity;BMP_temperature;BMP_pressure;BME280_temperature;BME280_humidity;BME280_pressure;Samples;Min_cycle;Max_cycle;Signal;HPM_P1;HPM_P2
2022/04/22 05:00:08;;;;;;;16.70;15.10;;;9.60;97.20;;;;;;1721190;28;20177;-76
2022/04/22 05:00:59;;;;;;;16.35;14.70;;;9.60;97.20;;;;;;1720451;28;20261;-76
2022/04/22 05:01:51;;;;;;;16.00;14.40;;;9.60;97.20;;;;;;1720721;28;20251;-76
2022/04/22 05:02:42;;;;;;;16.23;14.70;;;9.70;97.20;;;;;;1720623;28;20232;-75
2022/04/22 05:03:33;;;;;;;16.27;14.60;;;9.70;97.20;;;;;;1720911;28;20620;-76
2022/04/22 05:04:24;;;;;;;16.35;14.82;;;9.70;97.20;;;;;;1720537;28;20197;-75
2022/04/22 05:05:17;;;;;;;17.53;15.83;;;9.70;97.20;;;;;;1720888;28;20213;-75
2022/04/22 05:06:08;;;;;;;16.98;15.27;;;9.70;97.20;;;;;;1720990;28;20452;-75
2022/04/22 05:07:00;;;;;;;17.77;16.00;;;9.70;97.20;;;;;;1720615;28;20589;-75
2022/04/22 05:07:55;;;;;;;16.27;14.57;;;9.70;97.20;;;;;;1717252;28;20193;-75
2022/04/22 05:08:46;;;;;;;16.85;15.25;;;9.80;97.20;;;;;;1719623;28;20212;-76
2022/04/22 05:09:37;;;;;;;18.15;14.80;;;9.80;97.20;;;;;;1720495;28;20378;-76
2022/04/22 05:10:30;;;;;;;18.30;16.50;;;9.80;97.20;;;;;;1720402;28;20286;-76
2022/04/22 05:11:21;;;;;;;18.65;16.58;;;9.80;97.20;;;;;;1720848;28;20198;-76
2022/04/22 05:12:12;;;;;;;18.23;16.40;;;9.80;97.20;;;;;;1720478;28;20292;-76
2022/04/22 05:13:04;;;;;;;19.10;17.10;;;9.90;97.20;;;;;;1720009;28;20523;-75
2022/04/22 05:13:55;;;;;;;17.65;15.95;;;9.90;97.20;;;;;;1720876;28;20208;-75
2022/04/22 05:14:47;;;;;;;18.60;16.70;;;9.90;97.20;;;;;;1720819;28;20200;-76
2022/04/22 05:15:39;;;;;;;20.08;18.08;;;9.90;97.20;;;;;;1720718;28;20266;-76
2022/04/22 05:16:31;;;;;;;19.60;17.67;;;9.90;97.20;;;;;;1721023;28;20606;-76
2022/04/22 05:17:22;;;;;;;21.33;18.13;;;9.90;97.20;;;;;;1720580;28;20233;-76
2022/04/22 05:18:13;;;;;;;19.70;17.70;;;10.00;97.20;;;;;;1720415;28;20203;-76
2022/04/22 05:19:04;;;;;;;20.33;18.50;;;10.00;97.20;;;;;;1720869;28;20205;-76
2022/04/22 05:19:56;;;;;;;19.53;17.63;;;10.00;97.20;;;;;;1720927;28;20201;-76
2022/04/22 05:20:48;;;;;;;20.40;18.40;;;10.00;97.20;;;;;;1720861;28;20264;-76
2022/04/22 05:21:39;;;;;;;18.88;17.17;;;10.00;97.20;;;;;;1720744;28;20309;-76
2022/04/22 05:22:30;;;;;;;19.92;17.95;;;10.10;97.20;;;;;;1720920;28;20691;-76
2022/04/22 05:23:22;;;;;;;19.43;17.63;;;10.10;97.20;;;;;;1720831;28;20657;-76
2022/04/22 05:24:13;;;;;;;22.30;20.05;;;10.10;97.20;;;;;;1720859;28;20236;-76
2022/04/22 05:25:05;;;;;;;19.50;17.58;;;10.20;97.20;;;;;;1720770;28;20205;-75
2022/04/22 05:25:56;;;;;;;20.15;18.17;;;10.20;97.20;;;;;;1720889;28;20205;-75
2022/04/22 05:26:48;;;;;;;21.80;19.20;;;10.20;97.20;;;;;;1720919;28;20285;-76
2022/04/22 05:27:39;;;;;;;20.98;18.98;;;10.30;97.20;;;;;;1720525;28;20205;-75
2022/04/22 05:28:31;;;;;;;21.45;19.27;;;10.30;97.20;;;;;;1720485;28;20723;-76
2022/04/22 05:32:50;;;;;;;20.33;18.48;;;10.30;97.20;;;;;;1720971;28;20204;-76
2022/04/22 05:33:43;;;;;;;22.30;19.90;;;10.40;97.20;;;;;;1720781;28;20199;-75
2022/04/22 05:34:34;;;;;;;20.55;18.55;;;10.40;97.20;;;;;;1720810;28;20817;-76
2022/04/22 05:35:28;;;;;;;20.23;18.30;;;10.40;97.20;;;;;;1721258;28;20220;-78
2022/04/22 05:36:19;;;;;;;19.58;17.58;;;10.40;97.20;;;;;;1721151;28;20213;-77
2022/04/22 05:37:10;;;;;;;20.58;18.50;;;10.40;97.20;;;;;;1720947;28;20212;-77
2022/04/22 05:38:03;;;;;;;21.00;19.00;;;10.40;97.20;;;;;;1720588;28;20261;-80
2022/04/22 05:38:54;;;;;;;22.52;20.23;;;10.50;97.20;;;;;;1720935;28;20201;-77
2022/04/22 05:39:45;;;;;;;20.77;18.67;;;10.50;97.20;;;;;;1720498;28;20193;-76
2022/04/22 05:40:38;;;;;;;20.37;18.37;;;10.50;97.20;;;;;;1720004;28;20193;-76
2022/04/22 05:41:29;;;;;;;20.98;18.65;;;10.60;97.20;;;;;;1720673;28;20261;-76
2022/04/22 05:42:21;;;;;;;24.40;20.13;;;10.60;97.20;;;;;;1720730;28;20201;-76
2022/04/22 05:43:12;;;;;;;22.15;20.00;;;10.60;97.20;;;;;;1720890;28;20703;-76
2022/04/22 05:44:04;;;;;;;22.27;20.00;;;10.70;97.20;;;;;;1720714;28;20578;-76
2022/04/22 05:44:54;;;;;;;22.27;19.38;;;10.70;97.20;;;;;;1720607;28;20455;-76
2022/04/22 05:45:46;;;;;;;22.93;20.53;;;10.70;97.20;;;;;;1720742;28;20197;-76
2022/04/22 05:46:37;;;;;;;21.92;19.80;;;10.70;97.20;;;;;;1720792;28;20212;-76
2022/04/22 05:47:29;;;;;;;21.50;19.40;;;10.80;97.20;;;;;;1720771;28;20211;-76
2022/04/22 05:48:20;;;;;;;20.92;18.92;;;10.80;97.20;;;;;;1720481;28;20582;-76
2022/04/22 05:49:11;;;;;;;20.65;18.55;;;10.80;97.20;;;;;;1720684;28;20547;-76
2022/04/22 05:50:04;;;;;;;21.80;19.77;;;10.80;97.20;;;;;;1720692;28;20276;-76
2022/04/22 05:50:56;;;;;;;22.10;19.90;;;10.90;97.20;;;;;;1720801;28;20914;-76
2022/04/22 05:51:46;;;;;;;20.77;18.67;;;10.90;97.20;;;;;;1720721;28;20263;-76
2022/04/22 05:52:39;;;;;;;22.50;20.20;;;10.90;97.20;;;;;;1720784;28;20259;-76
2022/04/22 05:53:30;;;;;;;21.02;18.92;;;10.90;97.20;;;;;;1720724;28;20232;-76
2022/04/22 05:54:22;;;;;;;21.23;19.23;;;10.90;97.20;;;;;;1720760;28;20209;-76
2022/04/22 05:55:16;;;;;;;22.02;19.83;;;11.00;97.20;;;;;;1720771;28;20229;-76
2022/04/22 05:56:07;;;;;;;22.90;19.75;;;11.00;97.20;;;;;;1720749;28;20203;-76
2022/04/22 05:56:58;;;;;;;22.95;20.50;;;11.00;97.20;;;;;;1720763;28;20240;-76
2022/04/22 05:57:52;;;;;;;21.73;19.60;;;11.00;97.20;;;;;;1720775;28;20193;-76
2022/04/22 05:58:43;;;;;;;22.80;20.58;;;11.00;97.20;;;;;;1720442;28;20209;-75
2022/04/22 05:59:34;;;;;;;22.07;19.97;;;11.00;97.20;;;;;;1720248;28;20207;-76
2022/04/22 06:00:27;;;;;;;20.70;18.65;;;11.00;97.20;;;;;;1720691;28;20206;-76
2022/04/22 06:01:19;;;;;;;22.48;20.38;;;11.10;97.20;;;;;;1720579;28;20216;-76
2022/04/22 06:02:09;;;;;;;22.08;19.98;;;11.10;97.20;;;;;;1720716;28;20247;-76
2022/04/22 06:03:02;;;;;;;21.83;19.50;;;11.10;97.20;;;;;;1720715;28;20201;-76
2022/04/22 06:03:53;;;;;;;22.33;20.13;;;11.10;97.20;;;;;;1720685;28;20209;-76
2022/04/22 06:04:46;;;;;;;21.70;19.60;;;11.10;97.20;;;;;;1720644;28;20255;-76
2022/04/22 06:05:37;;;;;;;22.42;20.23;;;11.20;97.20;;;;;;1720540;28;20343;-77
2022/04/22 06:06:28;;;;;;;23.30;21.00;;;11.20;97.20;;;;;;1720740;28;20233;-76
2022/04/22 06:07:19;;;;;;;23.35;21.05;;;11.20;97.20;;;;;;1720628;28;20224;-76
2022/04/22 06:10:36;;;;;;;21.92;19.83;;;11.30;97.20;;;;;;1719843;28;20247;-76
2022/04/22 06:11:26;;;;;;;22.27;20.08;;;11.30;97.20;;;;;;1719634;28;20224;-77
2022/04/22 06:12:18;;;;;;;22.83;20.53;;;11.40;97.20;;;;;;1720376;28;20227;-76
2022/04/22 06:13:09;;;;;;;22.27;20.00;;;11.40;97.20;;;;;;1720720;28;20205;-76
2022/04/22 06:14:01;;;;;;;22.58;20.35;;;11.40;97.20;;;;;;1720732;28;20205;-76
2022/04/22 06:14:51;;;;;;;23.83;20.13;;;11.40;97.20;;;;;;1720622;28;20718;-76
2022/04/22 06:15:43;;;;;;;23.30;21.03;;;11.50;97.20;;;;;;1720396;28;20600;-76
2022/04/22 06:16:35;;;;;;;21.83;19.63;;;11.50;97.20;;;;;;1720658;28;20225;-76
2022/04/22 06:17:28;;;;;;;22.95;20.73;;;11.50;97.20;;;;;;1720584;28;20624;-76
2022/04/22 06:18:20;;;;;;;23.58;21.33;;;11.50;97.20;;;;;;1720337;28;20213;-76
2022/04/22 06:19:12;;;;;;;22.70;20.45;;;11.50;97.20;;;;;;1720238;28;20200;-76
2022/04/22 06:20:03;;;;;;;23.10;21.00;;;11.50;97.20;;;;;;1720613;28;20220;-76
2022/04/22 06:20:55;;;;;;;23.98;21.67;;;11.60;97.20;;;;;;1720755;28;20708;-75
2022/04/22 06:21:46;;;;;;;21.60;19.50;;;11.60;97.20;;;;;;1720569;28;20271;-76
2022/04/22 06:22:38;;;;;;;25.10;22.67;;;11.60;97.20;;;;;;1720794;28;20208;-76
2022/04/22 06:23:29;;;;;;;22.70;20.50;;;11.60;97.20;;;;;;1720592;28;20252;-76
2022/04/22 06:24:20;;;;;;;23.15;20.83;;;11.70;97.20;;;;;;1720522;28;20212;-76
2022/04/22 06:25:12;;;;;;;22.67;20.37;;;11.70;97.20;;;;;;1720677;28;20209;-76
2022/04/22 06:26:03;;;;;;;23.60;21.38;;;11.70;97.20;;;;;;1720652;28;20289;-76
2022/04/22 06:26:54;;;;;;;22.80;20.50;;;11.70;97.20;;;;;;1720701;28;20860;-76
2022/04/22 06:27:45;;;;;;;22.50;20.23;;;11.70;97.20;;;;;;1720622;28;20228;-76
2022/04/22 06:28:37;;;;;;;23.37;20.90;;;11.80;97.20;;;;;;1720157;28;20208;-76
2022/04/22 06:29:28;;;;;;;23.50;21.20;;;11.80;97.20;;;;;;1720522;28;20487;-76
2022/04/22 06:30:22;;;;;;;22.15;20.13;;;11.80;97.20;;;;;;1720711;28;20235;-76
2022/04/22 06:31:13;;;;;;;22.25;20.15;;;11.90;97.20;;;;;;1720691;28;20620;-76
2022/04/22 06:32:05;;;;;;;22.88;20.60;;;11.90;97.20;;;;;;1720579;28;20284;-76
2022/04/22 06:32:57;;;;;;;23.52;21.13;;;12.00;97.20;;;;;;1720869;28;20201;-77
2022/04/22 06:33:50;;;;;;;22.30;19.92;;;12.00;97.20;;;;;;1720940;28;20248;-77
2022/04/22 06:34:41;;;;;;;24.10;20.23;;;12.00;97.20;;;;;;1721000;28;20541;-77
2022/04/22 06:35:34;;;;;;;22.55;20.35;;;12.00;97.20;;;;;;1720950;28;20217;-77
2022/04/22 06:36:28;;;;;;;26.35;20.90;;;12.10;97.20;;;;;;1721012;28;20212;-77
2022/04/22 06:37:21;;;;;;;23.10;20.80;;;12.10;97.20;;;;;;1720535;28;20544;-76
2022/04/22 06:38:15;;;;;;;23.67;21.00;;;12.10;97.20;;;;;;1721019;28;20592;-77
2022/04/22 06:39:08;;;;;;;23.25;19.85;;;12.20;97.20;;;;;;1721485;28;20736;-77
2022/04/22 06:45:49;;;;;;;22.15;19.95;;;12.30;97.20;;;;;;1720803;28;20200;-78
2022/04/22 06:46:40;;;;;;;21.83;19.67;;;12.40;97.20;;;;;;1721963;28;20201;-78
2022/04/22 06:47:34;;;;;;;22.33;20.20;;;12.40;97.20;;;;;;1721915;28;20240;-74
2022/04/22 06:48:29;;;;;;;22.27;20.17;;;12.50;97.20;;;;;;1720234;28;20201;-76
2022/04/22 06:49:23;;;;;;;22.83;20.63;;;12.60;97.20;;;;;;1720410;28;20193;-79
2022/04/22 06:50:19;;;;;;;22.00;19.95;;;12.60;97.20;;;;;;1720545;28;20749;-70
2022/04/22 06:51:12;;;;;;;22.50;20.23;;;12.60;97.20;;;;;;1720554;28;20201;-73
2022/04/22 06:52:05;;;;;;;22.27;20.25;;;12.70;97.20;;;;;;1721311;28;20202;-71
2022/04/22 06:52:57;;;;;;;22.35;20.17;;;12.70;97.20;;;;;;1721837;28;20208;-72
2022/04/22 06:53:51;;;;;;;22.00;19.80;;;12.70;97.20;;;;;;1721904;28;20632;-72
2022/04/22 06:54:43;;;;;;;21.38;19.30;;;12.80;97.20;;;;;;1721807;28;20201;-72
2022/04/22 06:55:35;;;;;;;22.10;20.10;;;12.80;97.20;;;;;;1721748;28;20209;-71
2022/04/22 06:56:27;;;;;;;23.98;21.55;;;12.80;97.20;;;;;;1721747;28;20251;-71
2022/04/22 06:57:21;;;;;;;22.08;19.88;;;12.90;97.20;;;;;;1721818;28;20271;-72
2022/04/22 06:58:14;;;;;;;22.23;20.10;;;12.90;97.20;;;;;;1721486;28;20200;-71
2022/04/22 06:59:05;;;;;;;23.52;20.90;;;12.90;97.20;;;;;;1721382;28;20193;-72
2022/04/22 06:59:57;;;;;;;22.75;20.50;;;13.00;97.20;;;;;;1721515;28;20201;-72
2022/04/22 07:00:49;;;;;;;22.23;19.92;;;13.00;97.20;;;;;;1721626;28;20200;-71
2022/04/22 07:01:41;;;;;;;21.85;19.75;;;13.10;97.20;;;;;;1721679;28;20718;-71
2022/04/22 07:02:33;;;;;;;23.27;20.88;;;13.10;97.20;;;;;;1721711;28;20244;-72
2022/04/22 07:03:24;;;;;;;23.15;20.80;;;13.20;97.20;;;;;;1721786;28;20233;-72
2022/04/22 07:04:16;;;;;;;22.25;20.05;;;13.20;97.20;;;;;;1721805;28;20208;-72
2022/04/22 07:05:10;;;;;;;21.30;19.33;;;13.20;97.20;;;;;;1721744;28;20205;-72
2022/04/22 07:06:02;;;;;;;21.88;19.77;;;13.30;97.20;;;;;;1721805;28;20208;-73
2022/04/22 07:06:53;;;;;;;21.05;19.05;;;13.30;97.20;;;;;;1721865;28;20197;-72
2022/04/22 07:07:45;;;;;;;23.60;21.33;;;13.40;97.20;;;;;;1721704;28;20743;-76
2022/04/22 07:08:36;;;;;;;22.45;20.25;;;13.40;97.20;;;;;;1721379;28;20707;-73
2022/04/22 07:09:28;;;;;;;23.02;20.83;;;13.50;97.20;;;;;;1721374;28;20200;-74
2022/04/22 07:10:20;;;;;;;21.27;19.30;;;13.50;97.20;;;;;;1721801;28;20629;-74
2022/04/22 07:11:15;;;;;;;21.08;19.20;;;13.50;97.20;;;;;;1721760;28;20288;-74
2022/04/22 07:12:08;;;;;;;21.35;19.25;;;13.50;97.20;;;;;;1721705;28;20210;-74
2022/04/22 07:13:00;;;;;;;21.33;19.23;;;13.60;97.20;;;;;;1721435;28;20212;-74
2022/04/22 07:13:51;;;;;;;20.30;18.38;;;13.70;97.20;;;;;;1721491;28;20604;-73
2022/04/22 07:14:47;;;;;;;22.73;20.48;;;13.70;97.20;;;;;;1721760;28;20712;-72
2022/04/22 07:15:39;;;;;;;21.83;19.75;;;13.80;97.20;;;;;;1714941;28;20237;-74
2022/04/22 07:16:31;;;;;;;21.85;19.75;;;13.80;97.20;;;;;;1714978;28;20201;-72
2022/04/22 07:17:22;;;;;;;22.08;19.98;;;13.90;97.20;;;;;;1714770;28;20212;-73
2022/04/22 07:18:14;;;;;;;21.00;19.10;;;14.00;97.20;;;;;;1715954;28;20276;-73
2022/04/22 07:19:06;;;;;;;21.48;19.45;;;14.00;97.20;;;;;;1720062;28;20467;-73
2022/04/22 07:19:58;;;;;;;20.73;18.85;;;14.10;97.20;;;;;;1721473;28;20197;-72
2022/04/22 07:20:51;;;;;;;21.83;19.63;;;14.20;97.20;;;;;;1721633;28;20205;-72
2022/04/22 07:21:43;;;;;;;23.58;21.38;;;14.20;97.20;;;;;;1721655;28;20205;-73
2022/04/22 07:22:34;;;;;;;23.27;21.17;;;14.30;97.20;;;;;;1721755;28;20224;-74
2022/04/22 07:23:27;;;;;;;21.70;19.50;;;14.30;97.20;;;;;;1721641;28;20194;-74
2022/04/22 07:24:18;;;;;;;21.88;19.80;;;14.40;97.20;;;;;;1719692;28;20649;-73
2022/04/22 07:25:11;;;;;;;21.27;19.27;;;14.40;97.20;;;;;;1721572;28;20208;-74
2022/04/22 07:26:06;;;;;;;21.67;19.55;;;14.40;97.20;;;;;;1721587;28;20201;-73
2022/04/22 07:26:58;;;;;;;23.05;20.75;;;14.50;97.20;;;;;;1721712;28;20212;-74
2022/04/22 07:27:49;;;;;;;21.60;19.55;;;14.50;97.20;;;;;;1721095;28;20209;-73
2022/04/22 07:28:41;;;;;;;21.83;19.70;;;14.60;97.20;;;;;;1721241;28;20723;-72
2022/04/22 07:29:34;;;;;;;22.73;20.50;;;14.60;97.20;;;;;;1721483;28;20842;-73
2022/04/22 07:30:26;;;;;;;20.70;18.45;;;14.70;97.20;;;;;;1721611;28;20240;-72
2022/04/22 07:31:18;;;;;;;22.17;19.77;;;14.80;97.20;;;;;;1721600;28;20208;-73
2022/04/22 07:32:12;;;;;;;20.88;18.98;;;14.80;97.20;;;;;;1721614;28;20229;-73
2022/04/22 07:33:04;;;;;;;21.85;19.67;;;14.90;97.20;;;;;;1721602;28;20244;-74
2022/04/22 07:33:55;;;;;;;21.35;19.27;;;14.90;97.20;;;;;;1721689;28;20236;-73
2022/04/22 07:34:47;;;;;;;20.67;18.70;;;14.90;97.20;;;;;;1721591;28;20201;-73
2022/04/22 07:35:39;;;;;;;21.40;19.20;;;14.90;97.20;;;;;;1721440;28;20483;-74
2022/04/22 07:36:33;;;;;;;22.85;20.55;;;15.00;97.20;;;;;;1721481;28;20228;-73
2022/04/22 07:37:24;;;;;;;21.15;18.35;;;15.00;97.20;;;;;;1721522;28;20685;-73
2022/04/22 07:38:18;;;;;;;21.60;19.50;;;15.10;97.20;;;;;;1721314;28;20240;-73
2022/04/22 07:39:11;;;;;;;21.42;18.75;;;15.10;97.20;;;;;;1721469;28;20245;-73
2022/04/22 07:40:03;;;;;;;23.00;19.98;;;15.10;97.20;;;;;;1721520;28;20571;-73
2022/04/22 07:40:54;;;;;;;19.50;17.48;;;15.20;97.20;;;;;;1721585;28;20228;-72
2022/04/22 07:41:49;;;;;;;22.37;20.07;;;15.20;97.20;;;;;;1721497;28;20219;-72
2022/04/22 07:42:42;;;;;;;20.38;18.58;;;15.30;97.20;;;;;;1721428;28;20515;-73
2022/04/22 07:47:10;;;;;;;20.30;18.42;;;15.50;97.20;;;;;;1721438;28;20251;-73
2022/04/22 07:48:01;;;;;;;21.45;19.38;;;15.60;97.20;;;;;;1721197;28;20213;-72
2022/04/22 07:48:53;;;;;;;21.40;19.40;;;15.60;97.20;;;;;;1721411;28;20205;-73
2022/04/22 07:49:45;;;;;;;21.25;19.23;;;15.60;97.20;;;;;;1721397;28;20209;-76
2022/04/22 07:50:37;;;;;;;21.02;19.02;;;15.70;97.20;;;;;;1721527;28;20228;-76
2022/04/22 07:51:28;;;;;;;18.90;17.10;;;15.70;97.20;;;;;;1721530;28;20205;-76
2022/04/22 07:52:21;;;;;;;20.90;18.92;;;15.70;97.20;;;;;;1721529;28;20752;-75
2022/04/22 07:53:12;;;;;;;20.88;18.67;;;15.80;97.20;;;;;;1721576;28;20201;-74
2022/04/22 07:54:04;;;;;;;20.70;18.60;;;15.80;97.20;;;;;;1721412;28;20212;-73
2022/04/22 07:54:56;;;;;;;21.48;19.40;;;15.90;97.20;;;;;;1721392;28;20833;-72
2022/04/22 07:55:48;;;;;;;21.90;19.75;;;15.90;97.20;;;;;;1721416;28;20244;-74
2022/04/22 07:56:41;;;;;;;19.70;17.85;;;15.90;97.20;;;;;;1721362;28;20197;-74
2022/04/22 07:57:32;;;;;;;20.27;18.38;;;16.00;97.20;;;;;;1721473;28;20228;-74
2022/04/22 07:58:24;;;;;;;21.40;19.30;;;16.00;97.20;;;;;;1721094;28;20197;-74
2022/04/22 07:59:15;;;;;;;20.60;18.60;;;16.10;97.20;;;;;;1721320;28;20208;-73
2022/04/22 08:00:08;;;;;;;20.10;18.20;;;16.10;97.20;;;;;;1721446;28;20201;-73
2022/04/22 08:00:59;;;;;;;21.52;19.33;;;16.10;97.20;;;;;;1721477;28;20578;-74
2022/04/22 08:01:51;;;;;;;20.58;18.02;;;16.10;97.20;;;;;;1721359;28;20235;-73
2022/04/22 08:02:42;;;;;;;19.45;17.63;;;16.20;97.20;;;;;;1721243;28;20217;-73
2022/04/22 08:03:33;;;;;;;19.67;17.67;;;16.20;97.20;;;;;;1722160;28;20202;-74
2022/04/22 08:04:25;;;;;;;21.35;19.50;;;16.30;97.20;;;;;;1722173;28;20820;-74
2022/04/22 08:05:17;;;;;;;20.25;18.35;;;16.30;97.20;;;;;;1726265;28;20212;-74
2022/04/22 08:06:09;;;;;;;20.67;18.77;;;16.40;97.20;;;;;;1728245;28;20243;-74
2022/04/22 08:07:02;;;;;;;19.88;17.77;;;16.50;97.20;;;;;;1728011;28;20212;-74
2022/04/22 08:07:54;;;;;;;20.38;18.27;;;16.50;97.20;;;;;;1728041;28;20303;-74
2022/04/22 08:08:46;;;;;;;18.42;16.73;;;16.50;97.20;;;;;;1722980;28;20193;-73
2022/04/22 08:09:37;;;;;;;19.55;17.65;;;16.50;97.20;;;;;;1721121;28;20584;-74
2022/04/22 08:10:29;;;;;;;18.73;17.02;;;16.60;97.20;;;;;;1721185;28;20193;-74
2022/04/22 08:11:20;;;;;;;21.23;19.15;;;16.60;97.20;;;;;;1721254;28;20645;-73
2022/04/22 08:12:12;;;;;;;20.53;18.43;;;16.70;97.20;;;;;;1721245;28;20568;-74
2022/04/22 08:13:05;;;;;;;19.98;18.17;;;16.70;97.20;;;;;;1721040;28;20209;-74
2022/04/22 08:13:56;;;;;;;19.73;17.67;;;16.80;97.20;;;;;;1721277;28;20205;-73
2022/04/22 08:14:48;;;;;;;19.52;17.83;;;16.80;97.20;;;;;;1720793;28;20189;-74
2022/04/22 08:15:38;;;;;;;19.25;17.55;;;16.90;97.20;;;;;;1720906;28;20225;-73
2022/04/22 08:16:30;;;;;;;19.73;17.80;;;16.90;97.20;;;;;;1721077;28;20212;-73
2022/04/22 08:17:21;;;;;;;19.60;17.65;;;17.00;97.20;;;;;;1721304;28;20696;-73
2022/04/22 08:18:13;;;;;;;20.30;18.40;;;17.00;97.20;;;;;;1721035;28;20577;-73
2022/04/22 08:19:04;;;;;;;20.73;18.70;;;17.10;97.20;;;;;;1721284;28;20233;-73
2022/04/22 08:19:55;;;;;;;20.00;18.10;;;17.10;97.20;;;;;;1721295;28;20691;-72
2022/04/22 08:20:46;;;;;;;17.33;15.73;;;17.20;97.20;;;;;;1721209;28;20452;-74
2022/04/22 08:21:38;;;;;;;19.27;17.52;;;17.30;97.20;;;;;;1721373;28;20284;-75
2022/04/22 08:22:29;;;;;;;19.17;17.38;;;17.30;97.20;;;;;;1721085;28;20332;-72
2022/04/22 08:23:22;;;;;;;20.60;18.50;;;17.40;97.20;;;;;;1721471;28;20251;-74
2022/04/22 08:24:13;;;;;;;19.35;17.40;;;17.50;97.20;;;;;;1721332;28;20733;-75
2022/04/22 08:25:06;;;;;;;20.67;18.67;;;17.60;97.20;;;;;;1721183;28;20746;-75
2022/04/22 08:25:57;;;;;;;19.42;17.65;;;17.70;97.20;;;;;;1720864;28;20582;-74
2022/04/22 08:26:49;;;;;;;21.90;19.88;;;17.80;97.20;;;;;;1721689;28;20197;-75
2022/04/22 08:27:40;;;;;;;22.48;19.27;;;17.80;97.20;;;;;;1721235;28;20197;-74
2022/04/22 08:28:32;;;;;;;20.00;18.10;;;17.90;97.20;;;;;;1720849;28;20277;-74
2022/04/22 08:29:23;;;;;;;20.48;18.58;;;18.00;97.20;;;;;;1720994;28;20205;-75
2022/04/22 08:30:15;;;;;;;19.17;17.37;;;18.00;97.20;;;;;;1721221;28;20201;-75
2022/04/22 08:31:05;;;;;;;21.15;19.08;;;18.10;97.20;;;;;;1721187;28;20208;-75
2022/04/22 08:31:57;;;;;;;20.17;18.37;;;18.20;97.20;;;;;;1721090;28;20211;-74
2022/04/22 08:32:48;;;;;;;20.33;18.58;;;18.30;97.20;;;;;;1721128;28;20233;-75
2022/04/22 08:33:40;;;;;;;20.73;18.63;;;18.40;97.20;;;;;;1721262;28;20201;-75
2022/04/22 08:34:31;;;;;;;21.75;18.00;;;18.50;97.20;;;;;;1721240;28;20212;-75
2022/04/22 08:35:23;;;;;;;19.90;18.10;;;18.50;97.20;;;;;;1720907;28;20228;-75
2022/04/22 08:36:18;;;;;;;20.80;18.58;;;18.60;97.20;;;;;;1721122;28;20264;-75
2022/04/22 08:37:09;;;;;;;20.20;18.27;;;18.70;97.20;;;;;;1720914;28;20201;-74
2022/04/22 08:38:03;;;;;;;54.30;22.02;;;18.80;97.20;;;;;;1720879;28;20267;-75
2022/04/22 08:38:57;;;;;;;35.58;22.35;;;18.80;97.20;;;;;;1721189;28;20693;-75
2022/04/22 08:39:48;;;;;;;25.35;19.58;;;18.90;97.20;;;;;;1721060;28;20205;-74
2022/04/22 08:40:40;;;;;;;25.42;19.15;;;19.00;97.20;;;;;;1721164;28;20578;-75
2022/04/22 08:41:34;;;;;;;22.38;20.05;;;19.00;97.20;;;;;;1721099;28;20209;-75
2022/04/22 08:42:26;;;;;;;21.70;19.52;;;19.10;97.20;;;;;;1720944;28;20200;-75
2022/04/22 08:43:20;;;;;;;21.48;19.10;;;19.20;97.20;;;;;;1721139;28;20255;-74
2022/04/22 08:44:14;;;;;;;20.27;18.27;;;19.30;97.20;;;;;;1721168;28;20201;-74
2022/04/22 08:45:07;;;;;;;20.23;18.38;;;19.30;97.20;;;;;;1721152;28;20266;-75
2022/04/22 08:45:58;;;;;;;22.77;20.42;;;19.40;97.20;;;;;;1721055;28;20247;-75
2022/04/22 08:50:19;;;;;;;20.13;18.08;;;19.70;97.20;;;;;;1721242;28;20312;-74
2022/04/22 08:51:10;;;;;;;19.55;17.55;;;19.80;97.20;;;;;;1720605;28;20732;-74
2022/04/22 08:52:03;;;;;;;20.40;18.60;;;19.90;97.20;;;;;;1720038;28;20579;-74
2022/04/22 08:52:59;;;;;;;20.80;18.90;;;19.90;97.00;;;;;;1720971;28;20703;-75
2022/04/22 08:53:52;;;;;;;20.33;18.25;;;19.90;96.60;;;;;;1721037;28;20236;-74
2022/04/22 08:54:46;;;;;;;23.70;17.33;;;19.90;96.60;;;;;;1721054;28;20219;-74
2022/04/22 08:55:39;;;;;;;19.17;17.48;;;20.00;96.70;;;;;;1720968;28;20446;-74
2022/04/22 08:56:33;;;;;;;22.17;19.88;;;20.00;96.60;;;;;;1721054;28;20201;-74
2022/04/22 08:57:24;;;;;;;21.15;19.20;;;20.10;96.60;;;;;;1720968;28;20205;-74
2022/04/22 08:58:17;;;;;;;21.83;19.80;;;20.10;96.20;;;;;;1720818;28;20296;-74
2022/04/22 08:59:09;;;;;;;22.02;19.92;;;20.20;96.40;;;;;;1721037;28;20209;-75
2022/04/22 09:00:03;;;;;;;20.60;18.80;;;20.20;96.40;;;;;;1721014;28;20763;-75
2022/04/22 09:00:55;;;;;;;20.63;18.80;;;20.30;96.60;;;;;;1721074;28;20206;-74
2022/04/22 09:01:48;;;;;;;21.45;19.58;;;20.30;96.70;;;;;;1721032;28;20193;-74
2022/04/22 09:02:38;;;;;;;20.85;18.95;;;20.40;96.10;;;;;;1720961;28;20250;-75
2022/04/22 09:03:30;;;;;;;20.70;18.90;;;20.40;95.90;;;;;;1721028;28;20209;-74
2022/04/22 09:04:21;;;;;;;22.10;19.75;;;20.50;95.40;;;;;;1721015;28;20209;-74
2022/04/22 09:05:13;;;;;;;18.80;17.07;;;20.60;95.30;;;;;;1721018;28;20197;-75
2022/04/22 09:06:05;;;;;;;20.25;18.35;;;20.70;94.60;;;;;;1720993;28;20209;-75
2022/04/22 09:06:57;;;;;;;19.85;18.13;;;20.70;94.50;;;;;;1720915;28;20244;-74
2022/04/22 09:07:51;;;;;;;20.80;18.90;;;20.70;94.60;;;;;;1720250;28;20197;-74
2022/04/22 09:08:42;;;;;;;19.30;17.50;;;20.80;94.70;;;;;;1716011;28;20641;-75
2022/04/22 09:09:34;;;;;;;21.17;19.02;;;20.90;95.00;;;;;;1714660;28;20202;-74
2022/04/22 09:10:28;;;;;;;20.17;18.25;;;20.90;94.30;;;;;;1720935;28;20203;-74
2022/04/22 09:11:18;;;;;;;20.73;18.70;;;21.00;94.00;;;;;;1720879;28;20209;-74
2022/04/22 09:12:12;;;;;;;22.07;19.80;;;21.00;94.30;;;;;;1721000;28;20201;-75
2022/04/22 09:13:09;;;;;;;20.40;18.55;;;21.10;94.40;;;;;;1720877;28;20205;-75
2022/04/22 09:14:02;;;;;;;21.13;18.88;;;21.20;94.00;;;;;;1720897;28;20233;-74
2022/04/22 09:14:56;;;;;;;22.02;19.67;;;21.30;94.10;;;;;;1720900;28;20661;-74
2022/04/22 09:15:47;;;;;;;34.08;26.83;;;21.40;94.10;;;;;;1720862;28;20205;-74
2022/04/22 09:16:40;;;;;;;30.77;25.75;;;21.40;93.80;;;;;;1720964;28;20201;-74
2022/04/22 09:17:34;;;;;;;29.95;24.13;;;21.50;93.60;;;;;;1720882;28;20208;-75
2022/04/22 09:18:26;;;;;;;29.50;24.77;;;21.60;93.40;;;;;;1720535;28;20288;-74
2022/04/22 09:19:18;;;;;;;36.75;27.95;;;21.70;93.30;;;;;;1720829;28;20347;-75
2022/04/22 09:20:15;;;;;;;25.98;22.10;;;21.70;93.00;;;;;;1720878;28;20200;-74
2022/04/22 09:21:07;;;;;;;32.90;26.02;;;21.80;93.00;;;;;;1720916;28;20205;-75
2022/04/22 09:22:01;;;;;;;25.10;22.10;;;21.90;93.20;;;;;;1720910;28;20209;-74
2022/04/22 09:22:55;;;;;;;24.30;21.60;;;22.00;92.60;;;;;;1720772;28;20197;-74
2022/04/22 09:23:46;;;;;;;29.92;24.42;;;22.10;92.00;;;;;;1720894;28;20827;-73
2022/04/22 09:24:47;;;;;;;31.35;24.45;;;22.20;91.80;;;;;;1720921;28;20652;-74
2022/04/22 09:25:44;;;;;;;28.45;22.48;;;22.20;91.90;;;;;;1720830;28;20264;-75
2022/04/22 09:26:36;;;;;;;24.30;21.65;;;22.30;91.80;;;;;;1720893;28;20205;-75
2022/04/22 09:27:32;;;;;;;23.17;20.73;;;22.40;91.50;;;;;;1720879;28;20201;-74
2022/04/22 09:28:24;;;;;;;20.00;17.85;;;22.40;90.70;;;;;;1719996;28;20267;-75
2022/04/22 09:29:15;;;;;;;24.05;21.20;;;22.50;90.20;;;;;;1720568;28;20225;-75
2022/04/22 09:30:08;;;;;;;26.13;23.30;;;22.50;90.50;;;;;;1720958;28;20197;-75
2022/04/22 09:31:00;;;;;;;23.77;21.38;;;22.50;91.00;;;;;;1720813;28;20201;-75
2022/04/22 09:31:52;;;;;;;19.88;17.98;;;22.50;91.20;;;;;;1720796;28;20203;-74
2022/04/22 09:32:44;;;;;;;20.58;18.67;;;22.50;90.70;;;;;;1720694;28;20212;-74
2022/04/22 09:33:44;;;;;;;21.88;19.63;;;22.50;90.50;;;;;;1720778;28;20197;-74
2022/04/22 09:34:37;;;;;;;19.90;18.05;;;22.50;90.40;;;;;;1720831;28;20664;-75
2022/04/22 09:35:29;;;;;;;21.05;19.13;;;22.60;90.30;;;;;;1720714;28;20245;-74
2022/04/22 09:42:43;;;;;;;21.23;19.10;;;23.50;89.10;;;;;;1720317;28;20205;-75
2022/04/22 09:43:34;;;;;;;20.20;18.30;;;23.60;88.70;;;;;;1720105;28;20228;-75
2022/04/22 09:44:27;;;;;;;19.50;17.58;;;23.70;88.40;;;;;;1720626;28;20202;-75
2022/04/22 09:45:18;;;;;;;17.10;15.20;;;23.70;88.50;;;;;;1720578;28;20225;-75
2022/04/22 09:46:22;;;;;;;17.42;15.77;;;23.70;88.30;;;;;;1720856;28;20565;-75
2022/04/22 09:47:13;;;;;;;17.15;15.50;;;23.80;88.20;;;;;;1720726;28;20264;-74
2022/04/22 09:48:13;;;;;;;18.50;16.80;;;23.80;87.50;;;;;;1720335;28;20197;-74
2022/04/22 09:49:04;;;;;;;18.52;16.92;;;23.80;87.10;;;;;;1720642;28;20267;-74
2022/04/22 09:49:57;;;;;;;18.13;16.53;;;23.80;87.10;;;;;;1718823;28;20260;-74